EPKT Airport Information

Runway Information
Runway 09 Length 9183 ft width 195 ft
Elevation 970 ft Threshold 0 ft Heading 90
Runway 27 Length 9183 ft Width 195 ft
Elevation 994 ft Threshold 0 ft Heading 270
Airport Frequencies
Type APP Name APP Frequency 121.075 MHZ
Type GCCD Name HANDLING Frequency 131.45 MHZ
Type TWR Name TWR Frequency 129.25 MHZ
Airport Navaids
Type NDB Name Katowice Frequency 285 KHZ
Airport Weather Information & NOTAM
ADDS - METARS form results

(0814 UTC 03 December 2021)
Data provider http://aviationweather.gov/metar/data/
 
METAR text: EPKT 030800Z 26007KT 9999 BKN011 M01/M04 Q1009
Conditions at: EPKT (KATOWICE/PYRZOWI, PL) observed 0800 UTC 03 December 2021
Temperature: -1.0°C (30°F)
Dewpoint: -4.0°C (25°F) [RH = 80%]
Pressure (altimeter): 29.79 inches Hg (1009.0 mb)
Winds: from the W (260 degrees) at 8 MPH (7 knots; 3.6 m/s)
Visibility: 6 or more miles (10+ km)
Ceiling: 1100 feet AGL
Clouds: broken clouds at 1100 feet AGL
Weather: no significant weather observed at this time

METAR text: EPKT 030730Z 26009KT 9999 BKN011 M02/M04 Q1009
Conditions at: EPKT (KATOWICE/PYRZOWI, PL) observed 0730 UTC 03 December 2021
Temperature: -2.0°C (28°F)
Dewpoint: -4.0°C (25°F) [RH = 86%]
Pressure (altimeter): 29.79 inches Hg (1009.0 mb)
Winds: from the W (260 degrees) at 10 MPH (9 knots; 4.6 m/s)
Visibility: 6 or more miles (10+ km)
Ceiling: 1100 feet AGL
Clouds: broken clouds at 1100 feet AGL
Weather: no significant weather observed at this time

Forecast for: EPKT (KATOWICE/PYRZOWI, PL)
Text: TAF EPKT 030530Z 0306/0406 27010KT 9999 BKN016
Forecast period: 0600 to 1300 UTC 03 December 2021
Forecast type: FROM: standard forecast or significant change
Winds: from the W (270 degrees) at 12 MPH (10 knots; 5.1 m/s)
Visibility: 6 or more miles (10+ km)
Ceiling: 1600 feet AGL
Clouds: broken clouds at 1600 feet AGL
Weather: no significant weather forecast for this period
Text: TEMPO 0306/0309 BKN013
Forecast period: 0600 to 0900 UTC 03 December 2021
Forecast type: TEMPORARY: The following changes expected for less than half the time period
Visibility: missing
Ceiling: 1300 feet AGL
Clouds: broken clouds at 1300 feet AGL
Weather: no significant weather forecast for this period
Text: BECMG 0313/0316 21007KT
Forecast period: 1300 UTC 03 December 2021 to 0600 UTC 04 December 2021
Forecast type: BECOMING: Conditions expected to become as follows by 1600 UTC 03 December 2021
Winds: from the SSW (210 degrees) at 8 MPH (7 knots; 3.6 m/s)
Visibility: 6 or more miles (10+ km)
Ceiling: 1600 feet AGL
Clouds: broken clouds at 1600 feet AGL
Weather: no significant weather forecast for this period